sensor_id;sensor_type;location;lat;lon;timestamp;P1;durP1;ratioP1;P2;durP2;ratioP2
1404;SDS011;697;51.114;6.542;2022-11-20T00:00:09;20.73;;;17.77;;
1404;SDS011;697;51.114;6.542;2022-11-20T00:02:37;25.20;;;17.87;;
1404;SDS011;697;51.114;6.542;2022-11-20T00:05:05;21.87;;;17.97;;
1404;SDS011;697;51.114;6.542;2022-11-20T00:07:33;22.60;;;17.10;;
1404;SDS011;697;51.114;6.542;2022-11-20T00:09:59;24.17;;;16.80;;
1404;SDS011;697;51.114;6.542;2022-11-20T00:12:26;20.10;;;14.70;;
1404;SDS011;697;51.114;6.542;2022-11-20T00:14:53;21.20;;;16.93;;
1404;SDS011;697;51.114;6.542;2022-11-20T00:17:20;18.67;;;15.53;;
1404;SDS011;697;51.114;6.542;2022-11-20T00:19:46;17.97;;;14.50;;
1404;SDS011;697;51.114;6.542;2022-11-20T00:22:15;22.47;;;17.97;;
1404;SDS011;697;51.114;6.542;2022-11-20T00:24:41;20.00;;;16.60;;
1404;SDS011;697;51.114;6.542;2022-11-20T00:27:08;17.40;;;14.80;;
1404;SDS011;697;51.114;6.542;2022-11-20T00:29:35;20.70;;;16.90;;
1404;SDS011;697;51.114;6.542;2022-11-20T00:32:01;19.47;;;16.83;;
1404;SDS011;697;51.114;6.542;2022-11-20T00:34:28;17.67;;;13.70;;
1404;SDS011;697;51.114;6.542;2022-11-20T00:36:55;21.90;;;17.77;;
1404;SDS011;697;51.114;6.542;2022-11-20T00:39:23;20.37;;;16.70;;
1404;SDS011;697;51.114;6.542;2022-11-20T00:41:50;20.40;;;15.90;;
1404;SDS011;697;51.114;6.542;2022-11-20T00:44:16;20.97;;;16.20;;
1404;SDS011;697;51.114;6.542;2022-11-20T00:46:43;16.37;;;14.13;;
1404;SDS011;697;51.114;6.542;2022-11-20T00:49:10;17.10;;;15.27;;
1404;SDS011;697;51.114;6.542;2022-11-20T00:51:36;22.60;;;16.97;;
1404;SDS011;697;51.114;6.542;2022-11-20T00:54:03;26.43;;;18.77;;
1404;SDS011;697;51.114;6.542;2022-11-20T00:56:31;24.80;;;18.00;;
1404;SDS011;697;51.114;6.542;2022-11-20T00:58:58;28.53;;;21.10;;
1404;SDS011;697;51.114;6.542;2022-11-20T01:01:26;24.80;;;18.40;;
1404;SDS011;697;51.114;6.542;2022-11-20T01:03:54;23.37;;;17.73;;
1404;SDS011;697;51.114;6.542;2022-11-20T01:06:23;23.47;;;17.43;;
1404;SDS011;697;51.114;6.542;2022-11-20T01:08:52;23.60;;;16.77;;
1404;SDS011;697;51.114;6.542;2022-11-20T01:11:20;22.63;;;17.40;;
1404;SDS011;697;51.114;6.542;2022-11-20T01:13:50;20.70;;;16.00;;
1404;SDS011;697;51.114;6.542;2022-11-20T01:16:20;20.80;;;14.73;;
1404;SDS011;697;51.114;6.542;2022-11-20T01:18:49;20.10;;;16.47;;
1404;SDS011;697;51.114;6.542;2022-11-20T01:21:20;21.50;;;17.03;;
1404;SDS011;697;51.114;6.542;2022-11-20T01:23:49;20.23;;;17.00;;
1404;SDS011;697;51.114;6.542;2022-11-20T01:26:18;20.83;;;17.27;;
1404;SDS011;697;51.114;6.542;2022-11-20T01:28:46;18.60;;;14.33;;
1404;SDS011;697;51.114;6.542;2022-11-20T01:31:16;20.00;;;15.03;;
1404;SDS011;697;51.114;6.542;2022-11-20T01:33:45;18.80;;;15.27;;
1404;SDS011;697;51.114;6.542;2022-11-20T01:36:13;16.87;;;14.53;;
1404;SDS011;697;51.114;6.542;2022-11-20T01:38:41;19.07;;;15.30;;
1404;SDS011;697;51.114;6.542;2022-11-20T01:41:08;20.23;;;15.10;;
1404;SDS011;697;51.114;6.542;2022-11-20T01:43:57;23.00;;;16.77;;
1404;SDS011;697;51.114;6.542;2022-11-20T01:46:24;20.20;;;16.17;;
1404;SDS011;697;51.114;6.542;2022-11-20T01:48:52;18.10;;;15.40;;
1404;SDS011;697;51.114;6.542;2022-11-20T01:51:25;18.27;;;15.20;;
1404;SDS011;697;51.114;6.542;2022-11-20T01:53:57;19.97;;;14.77;;
1404;SDS011;697;51.114;6.542;2022-11-20T01:56:27;20.70;;;17.50;;
1404;SDS011;697;51.114;6.542;2022-11-20T01:58:56;20.17;;;16.47;;
1404;SDS011;697;51.114;6.542;2022-11-20T02:01:27;20.17;;;16.87;;
1404;SDS011;697;51.114;6.542;2022-11-20T02:03:54;20.23;;;16.73;;
1404;SDS011;697;51.114;6.542;2022-11-20T02:06:22;26.30;;;15.03;;
1404;SDS011;697;51.114;6.542;2022-11-20T02:08:51;23.17;;;17.17;;
1404;SDS011;697;51.114;6.542;2022-11-20T02:11:18;20.70;;;16.30;;
1404;SDS011;697;51.114;6.542;2022-11-20T02:13:45;21.10;;;16.40;;
1404;SDS011;697;51.114;6.542;2022-11-20T02:16:12;22.10;;;17.83;;
1404;SDS011;697;51.114;6.542;2022-11-20T02:18:44;19.50;;;15.90;;
1404;SDS011;697;51.114;6.542;2022-11-20T02:21:13;16.53;;;14.40;;
1404;SDS011;697;51.114;6.542;2022-11-20T02:23:56;18.10;;;15.63;;
1404;SDS011;697;51.114;6.542;2022-11-20T02:26:28;19.30;;;15.37;;
1404;SDS011;697;51.114;6.542;2022-11-20T02:28:57;22.03;;;17.20;;
1404;SDS011;697;51.114;6.542;2022-11-20T02:31:25;21.83;;;17.53;;
1404;SDS011;697;51.114;6.542;2022-11-20T02:33:54;21.10;;;17.20;;
1404;SDS011;697;51.114;6.542;2022-11-20T02:36:21;18.20;;;15.43;;
1404;SDS011;697;51.114;6.542;2022-11-20T02:38:50;17.87;;;15.57;;
1404;SDS011;697;51.114;6.542;2022-11-20T02:41:18;21.00;;;15.97;;
1404;SDS011;697;51.114;6.542;2022-11-20T02:43:44;19.17;;;15.07;;
1404;SDS011;697;51.114;6.542;2022-11-20T02:46:11;20.20;;;16.60;;
1404;SDS011;697;51.114;6.542;2022-11-20T02:48:38;22.00;;;15.40;;
1404;SDS011;697;51.114;6.542;2022-11-20T02:51:05;19.63;;;15.10;;
1404;SDS011;697;51.114;6.542;2022-11-20T02:53:31;18.03;;;14.73;;
1404;SDS011;697;51.114;6.542;2022-11-20T02:55:59;16.10;;;14.40;;
1404;SDS011;697;51.114;6.542;2022-11-20T02:58:28;21.33;;;15.90;;
1404;SDS011;697;51.114;6.542;2022-11-20T03:00:54;18.77;;;15.93;;
1404;SDS011;697;51.114;6.542;2022-11-20T03:03:21;21.67;;;16.23;;
1404;SDS011;697;51.114;6.542;2022-11-20T03:05:48;21.70;;;16.70;;
1404;SDS011;697;51.114;6.542;2022-11-20T03:08:14;21.33;;;16.40;;
1404;SDS011;697;51.114;6.542;2022-11-20T03:10:41;24.50;;;18.07;;
1404;SDS011;697;51.114;6.542;2022-11-20T03:13:08;25.67;;;16.33;;
1404;SDS011;697;51.114;6.542;2022-11-20T03:15:36;18.40;;;15.67;;
1404;SDS011;697;51.114;6.542;2022-11-20T03:18:03;21.30;;;17.40;;
1404;SDS011;697;51.114;6.542;2022-11-20T03:20:32;18.67;;;15.37;;
1404;SDS011;697;51.114;6.542;2022-11-20T03:22:59;19.83;;;15.63;;
1404;SDS011;697;51.114;6.542;2022-11-20T03:25:26;19.17;;;15.47;;
1404;SDS011;697;51.114;6.542;2022-11-20T03:27:53;20.07;;;15.87;;
1404;SDS011;697;51.114;6.542;2022-11-20T03:30:20;20.63;;;15.60;;
1404;SDS011;697;51.114;6.542;2022-11-20T03:32:49;20.03;;;14.97;;
1404;SDS011;697;51.114;6.542;2022-11-20T03:35:19;17.93;;;14.40;;
1404;SDS011;697;51.114;6.542;2022-11-20T03:37:46;17.60;;;15.03;;
1404;SDS011;697;51.114;6.542;2022-11-20T03:40:13;16.93;;;13.27;;
1404;SDS011;697;51.114;6.542;2022-11-20T03:42:40;18.50;;;15.30;;
1404;SDS011;697;51.114;6.542;2022-11-20T03:45:13;19.87;;;15.67;;
1404;SDS011;697;51.114;6.542;2022-11-20T03:47:40;20.90;;;16.90;;
1404;SDS011;697;51.114;6.542;2022-11-20T03:50:09;17.83;;;15.20;;
1404;SDS011;697;51.114;6.542;2022-11-20T03:52:37;17.60;;;13.77;;
1404;SDS011;697;51.114;6.542;2022-11-20T03:55:04;20.83;;;14.73;;
1404;SDS011;697;51.114;6.542;2022-11-20T03:57:31;18.67;;;14.30;;
1404;SDS011;697;51.114;6.542;2022-11-20T03:59:58;17.97;;;14.83;;
1404;SDS011;697;51.114;6.542;2022-11-20T04:02:25;18.20;;;14.53;;
1404;SDS011;697;51.114;6.542;2022-11-20T04:04:51;21.50;;;16.13;;
1404;SDS011;697;51.114;6.542;2022-11-20T04:07:19;21.57;;;15.03;;
1404;SDS011;697;51.114;6.542;2022-11-20T04:09:46;17.80;;;14.27;;
1404;SDS011;697;51.114;6.542;2022-11-20T04:12:13;20.43;;;16.73;;
1404;SDS011;697;51.114;6.542;2022-11-20T04:14:40;20.73;;;15.23;;
1404;SDS011;697;51.114;6.542;2022-11-20T04:17:06;24.70;;;16.13;;
1404;SDS011;697;51.114;6.542;2022-11-20T04:19:33;17.40;;;13.90;;
1404;SDS011;697;51.114;6.542;2022-11-20T04:22:00;20.00;;;16.57;;
1404;SDS011;697;51.114;6.542;2022-11-20T04:24:28;20.30;;;16.90;;
1404;SDS011;697;51.114;6.542;2022-11-20T04:26:55;19.70;;;15.80;;
1404;SDS011;697;51.114;6.542;2022-11-20T04:29:22;19.30;;;15.83;;
1404;SDS011;697;51.114;6.542;2022-11-20T04:31:48;22.63;;;15.93;;
1404;SDS011;697;51.114;6.542;2022-11-20T04:34:15;18.97;;;14.60;;
1404;SDS011;697;51.114;6.542;2022-11-20T04:36:42;22.03;;;16.57;;
1404;SDS011;697;51.114;6.542;2022-11-20T04:39:11;21.07;;;16.50;;
1404;SDS011;697;51.114;6.542;2022-11-20T04:41:41;19.27;;;14.70;;
1404;SDS011;697;51.114;6.542;2022-11-20T04:44:08;21.03;;;15.90;;
1404;SDS011;697;51.114;6.542;2022-11-20T04:46:36;18.23;;;14.50;;
1404;SDS011;697;51.114;6.542;2022-11-20T04:49:04;21.20;;;16.47;;
1404;SDS011;697;51.114;6.542;2022-11-20T04:51:31;20.10;;;15.10;;
1404;SDS011;697;51.114;6.542;2022-11-20T04:53:58;18.87;;;15.60;;
1404;SDS011;697;51.114;6.542;2022-11-20T04:56:25;17.57;;;14.83;;
1404;SDS011;697;51.114;6.542;2022-11-20T04:58:53;21.50;;;15.97;;
1404;SDS011;697;51.114;6.542;2022-11-20T05:01:21;18.77;;;15.03;;
1404;SDS011;697;51.114;6.542;2022-11-20T05:03:48;23.80;;;16.83;;
1404;SDS011;697;51.114;6.542;2022-11-20T05:06:16;20.80;;;16.20;;
1404;SDS011;697;51.114;6.542;2022-11-20T05:08:44;20.77;;;16.23;;
1404;SDS011;697;51.114;6.542;2022-11-20T05:11:11;21.27;;;15.17;;
1404;SDS011;697;51.114;6.542;2022-11-20T05:13:40;21.43;;;16.70;;
1404;SDS011;697;51.114;6.542;2022-11-20T05:16:08;20.40;;;15.00;;
1404;SDS011;697;51.114;6.542;2022-11-20T05:18:37;21.23;;;17.17;;
1404;SDS011;697;51.114;6.542;2022-11-20T05:21:04;19.73;;;15.90;;
1404;SDS011;697;51.114;6.542;2022-11-20T05:23:32;22.60;;;16.83;;
1404;SDS011;697;51.114;6.542;2022-11-20T05:25:59;19.70;;;14.30;;
1404;SDS011;697;51.114;6.542;2022-11-20T05:28:26;20.77;;;15.67;;
1404;SDS011;697;51.114;6.542;2022-11-20T05:30:53;21.50;;;16.67;;
1404;SDS011;697;51.114;6.542;2022-11-20T05:33:22;22.30;;;16.43;;
1404;SDS011;697;51.114;6.542;2022-11-20T05:35:49;19.87;;;15.17;;
1404;SDS011;697;51.114;6.542;2022-11-20T05:38:16;21.90;;;15.80;;
1404;SDS011;697;51.114;6.542;2022-11-20T05:40:42;22.97;;;16.73;;
1404;SDS011;697;51.114;6.542;2022-11-20T05:43:09;21.83;;;16.70;;
1404;SDS011;697;51.114;6.542;2022-11-20T05:45:36;19.10;;;16.30;;
1404;SDS011;697;51.114;6.542;2022-11-20T05:48:03;24.37;;;16.63;;
1404;SDS011;697;51.114;6.542;2022-11-20T05:50:31;20.87;;;17.30;;
1404;SDS011;697;51.114;6.542;2022-11-20T05:52:58;24.83;;;17.83;;
1404;SDS011;697;51.114;6.542;2022-11-20T05:55:25;23.20;;;15.47;;
1404;SDS011;697;51.114;6.542;2022-11-20T05:57:52;20.03;;;15.67;;
1404;SDS011;697;51.114;6.542;2022-11-20T06:00:19;20.70;;;15.67;;
1404;SDS011;697;51.114;6.542;2022-11-20T06:02:46;19.60;;;15.20;;
1404;SDS011;697;51.114;6.542;2022-11-20T06:05:13;21.00;;;15.93;;
1404;SDS011;697;51.114;6.542;2022-11-20T06:07:41;16.83;;;14.13;;
1404;SDS011;697;51.114;6.542;2022-11-20T06:10:11;18.40;;;15.03;;
1404;SDS011;697;51.114;6.542;2022-11-20T06:12:37;19.77;;;16.47;;
1404;SDS011;697;51.114;6.542;2022-11-20T06:15:05;19.87;;;15.63;;
1404;SDS011;697;51.114;6.542;2022-11-20T06:17:32;18.47;;;14.93;;
1404;SDS011;697;51.114;6.542;2022-11-20T06:19:59;19.50;;;16.00;;
1404;SDS011;697;51.114;6.542;2022-11-20T06:22:25;20.60;;;14.60;;
1404;SDS011;697;51.114;6.542;2022-11-20T06:24:53;16.50;;;14.20;;
1404;SDS011;697;51.114;6.542;2022-11-20T06:27:20;18.30;;;15.13;;
1404;SDS011;697;51.114;6.542;2022-11-20T06:29:47;19.93;;;15.33;;
1404;SDS011;697;51.114;6.542;2022-11-20T06:32:14;17.70;;;13.97;;
1404;SDS011;697;51.114;6.542;2022-11-20T06:34:40;20.67;;;15.87;;
1404;SDS011;697;51.114;6.542;2022-11-20T06:37:07;20.27;;;16.17;;
1404;SDS011;697;51.114;6.542;2022-11-20T06:39:34;22.20;;;16.17;;
1404;SDS011;697;51.114;6.542;2022-11-20T06:42:02;19.23;;;15.43;;
1404;SDS011;697;51.114;6.542;2022-11-20T06:44:28;21.23;;;15.70;;
1404;SDS011;697;51.114;6.542;2022-11-20T06:46:55;18.33;;;14.87;;
1404;SDS011;697;51.114;6.542;2022-11-20T06:49:22;21.37;;;16.43;;
1404;SDS011;697;51.114;6.542;2022-11-20T06:51:48;25.07;;;17.10;;
1404;SDS011;697;51.114;6.542;2022-11-20T06:54:15;20.17;;;15.70;;
1404;SDS011;697;51.114;6.542;2022-11-20T06:56:42;20.70;;;17.97;;
1404;SDS011;697;51.114;6.542;2022-11-20T06:59:14;23.93;;;17.60;;
1404;SDS011;697;51.114;6.542;2022-11-20T07:01:40;22.57;;;17.97;;
1404;SDS011;697;51.114;6.542;2022-11-20T07:04:07;25.80;;;19.77;;
1404;SDS011;697;51.114;6.542;2022-11-20T07:06:34;29.43;;;19.40;;
1404;SDS011;697;51.114;6.542;2022-11-20T07:09:01;24.67;;;18.80;;
1404;SDS011;697;51.114;6.542;2022-11-20T07:11:28;25.83;;;18.30;;
1404;SDS011;697;51.114;6.542;2022-11-20T07:13:55;26.53;;;19.63;;
1404;SDS011;697;51.114;6.542;2022-11-20T07:16:24;25.00;;;19.57;;
1404;SDS011;697;51.114;6.542;2022-11-20T07:18:51;24.27;;;19.30;;
1404;SDS011;697;51.114;6.542;2022-11-20T07:21:18;24.30;;;19.40;;
1404;SDS011;697;51.114;6.542;2022-11-20T07:23:45;21.07;;;18.37;;
1404;SDS011;697;51.114;6.542;2022-11-20T07:26:11;27.90;;;19.70;;
1404;SDS011;697;51.114;6.542;2022-11-20T07:28:38;23.37;;;17.67;;
1404;SDS011;697;51.114;6.542;2022-11-20T07:31:05;22.60;;;18.10;;
1404;SDS011;697;51.114;6.542;2022-11-20T07:33:33;23.27;;;17.40;;
1404;SDS011;697;51.114;6.542;2022-11-20T07:36:01;21.77;;;17.90;;
1404;SDS011;697;51.114;6.542;2022-11-20T07:38:28;22.13;;;18.53;;
1404;SDS011;697;51.114;6.542;2022-11-20T07:40:54;23.77;;;17.47;;
1404;SDS011;697;51.114;6.542;2022-11-20T07:43:22;27.40;;;19.00;;
1404;SDS011;697;51.114;6.542;2022-11-20T07:45:49;24.00;;;19.27;;
1404;SDS011;697;51.114;6.542;2022-11-20T07:48:15;21.80;;;16.77;;
1404;SDS011;697;51.114;6.542;2022-11-20T07:50:44;19.10;;;16.83;;
1404;SDS011;697;51.114;6.542;2022-11-20T07:53:10;26.43;;;19.53;;
1404;SDS011;697;51.114;6.542;2022-11-20T07:55:37;21.90;;;18.00;;
1404;SDS011;697;51.114;6.542;2022-11-20T07:58:04;26.20;;;18.10;;
1404;SDS011;697;51.114;6.542;2022-11-20T08:00:31;22.70;;;17.90;;
1404;SDS011;697;51.114;6.542;2022-11-20T08:02:57;25.80;;;19.47;;
1404;SDS011;697;51.114;6.542;2022-11-20T08:05:24;23.67;;;19.13;;
1404;SDS011;697;51.114;6.542;2022-11-20T08:07:52;23.20;;;19.63;;
1404;SDS011;697;51.114;6.542;2022-11-20T08:10:19;26.10;;;20.17;;
1404;SDS011;697;51.114;6.542;2022-11-20T08:12:46;26.10;;;20.43;;
1404;SDS011;697;51.114;6.542;2022-11-20T08:15:32;26.20;;;19.70;;
1404;SDS011;697;51.114;6.542;2022-11-20T08:18:00;21.70;;;18.97;;
1404;SDS011;697;51.114;6.542;2022-11-20T08:20:27;26.33;;;20.00;;
1404;SDS011;697;51.114;6.542;2022-11-20T08:22:58;23.83;;;19.90;;
1404;SDS011;697;51.114;6.542;2022-11-20T08:25:26;22.00;;;17.10;;
1404;SDS011;697;51.114;6.542;2022-11-20T08:27:53;24.07;;;19.33;;
1404;SDS011;697;51.114;6.542;2022-11-20T08:30:19;24.93;;;18.17;;
1404;SDS011;697;51.114;6.542;2022-11-20T08:32:46;26.33;;;18.73;;
1404;SDS011;697;51.114;6.542;2022-11-20T08:35:13;35.10;;;23.37;;
1404;SDS011;697;51.114;6.542;2022-11-20T08:37:40;30.40;;;21.30;;
1404;SDS011;697;51.114;6.542;2022-11-20T08:40:09;30.23;;;20.77;;
1404;SDS011;697;51.114;6.542;2022-11-20T08:42:45;21.13;;;17.20;;
1404;SDS011;697;51.114;6.542;2022-11-20T08:45:13;26.03;;;18.43;;
1404;SDS011;697;51.114;6.542;2022-11-20T08:47:40;22.80;;;17.80;;
1404;SDS011;697;51.114;6.542;2022-11-20T08:50:07;23.97;;;18.90;;
1404;SDS011;697;51.114;6.542;2022-11-20T08:52:34;22.73;;;17.83;;
1404;SDS011;697;51.114;6.542;2022-11-20T08:55:01;22.00;;;16.90;;
1404;SDS011;697;51.114;6.542;2022-11-20T08:57:29;24.47;;;18.27;;
1404;SDS011;697;51.114;6.542;2022-11-20T08:59:57;26.97;;;19.10;;
1404;SDS011;697;51.114;6.542;2022-11-20T09:02:24;27.10;;;21.30;;
1404;SDS011;697;51.114;6.542;2022-11-20T09:04:52;27.73;;;19.67;;
1404;SDS011;697;51.114;6.542;2022-11-20T09:07:19;28.70;;;19.40;;
1404;SDS011;697;51.114;6.542;2022-11-20T09:09:46;28.07;;;19.27;;
1404;SDS011;697;51.114;6.542;2022-11-20T09:12:13;30.43;;;20.27;;
1404;SDS011;697;51.114;6.542;2022-11-20T09:14:41;27.83;;;19.00;;
1404;SDS011;697;51.114;6.542;2022-11-20T09:17:09;32.50;;;21.83;;
1404;SDS011;697;51.114;6.542;2022-11-20T09:19:38;38.30;;;23.03;;
1404;SDS011;697;51.114;6.542;2022-11-20T09:22:05;36.30;;;22.50;;
1404;SDS011;697;51.114;6.542;2022-11-20T09:24:32;38.37;;;24.10;;
1404;SDS011;697;51.114;6.542;2022-11-20T09:27:01;39.23;;;24.80;;
1404;SDS011;697;51.114;6.542;2022-11-20T09:29:29;37.67;;;24.17;;
1404;SDS011;697;51.114;6.542;2022-11-20T09:31:57;37.97;;;22.27;;
1404;SDS011;697;51.114;6.542;2022-11-20T09:34:23;40.57;;;24.50;;
1404;SDS011;697;51.114;6.542;2022-11-20T09:36:50;32.90;;;21.47;;
1404;SDS011;697;51.114;6.542;2022-11-20T09:39:17;38.17;;;22.83;;
1404;SDS011;697;51.114;6.542;2022-11-20T09:41:59;38.80;;;21.53;;
1404;SDS011;697;51.114;6.542;2022-11-20T09:44:38;36.57;;;22.33;;
1404;SDS011;697;51.114;6.542;2022-11-20T09:47:21;36.53;;;21.07;;
1404;SDS011;697;51.114;6.542;2022-11-20T09:50:02;37.43;;;21.33;;
1404;SDS011;697;51.114;6.542;2022-11-20T09:52:44;31.93;;;20.97;;
1404;SDS011;697;51.114;6.542;2022-11-20T09:55:20;32.30;;;20.53;;
1404;SDS011;697;51.114;6.542;2022-11-20T09:57:48;27.17;;;18.10;;
1404;SDS011;697;51.114;6.542;2022-11-20T10:00:18;27.03;;;17.60;;
1404;SDS011;697;51.114;6.542;2022-11-20T10:02:48;28.60;;;19.57;;
1404;SDS011;697;51.114;6.542;2022-11-20T10:05:21;30.90;;;18.57;;
1404;SDS011;697;51.114;6.542;2022-11-20T10:07:53;30.13;;;19.43;;
1404;SDS011;697;51.114;6.542;2022-11-20T10:10:40;28.90;;;18.37;;
1404;SDS011;697;51.114;6.542;2022-11-20T10:13:14;30.13;;;18.70;;
1404;SDS011;697;51.114;6.542;2022-11-20T10:15:52;30.47;;;19.13;;
1404;SDS011;697;51.114;6.542;2022-11-20T10:18:29;34.07;;;19.20;;
1404;SDS011;697;51.114;6.542;2022-11-20T10:21:09;30.00;;;18.93;;
1404;SDS011;697;51.114;6.542;2022-11-20T10:23:51;28.57;;;18.17;;
1404;SDS011;697;51.114;6.542;2022-11-20T10:26:31;26.40;;;17.90;;
1404;SDS011;697;51.114;6.542;2022-11-20T10:29:07;29.70;;;17.60;;
1404;SDS011;697;51.114;6.542;2022-11-20T10:31:39;25.13;;;17.27;;
1404;SDS011;697;51.114;6.542;2022-11-20T10:34:14;26.60;;;17.67;;
1404;SDS011;697;51.114;6.542;2022-11-20T10:36:46;26.57;;;18.20;;
1404;SDS011;697;51.114;6.542;2022-11-20T10:39:20;20.07;;;15.83;;
1404;SDS011;697;51.114;6.542;2022-11-20T10:41:53;26.90;;;18.27;;
1404;SDS011;697;51.114;6.542;2022-11-20T10:44:21;29.10;;;19.23;;
1404;SDS011;697;51.114;6.542;2022-11-20T10:47:11;30.63;;;18.63;;
1404;SDS011;697;51.114;6.542;2022-11-20T10:49:41;31.57;;;18.77;;
1404;SDS011;697;51.114;6.542;2022-11-20T10:52:11;29.70;;;17.70;;
1404;SDS011;697;51.114;6.542;2022-11-20T10:54:48;25.27;;;16.93;;
1404;SDS011;697;51.114;6.542;2022-11-20T10:57:24;31.43;;;17.90;;
1404;SDS011;697;51.114;6.542;2022-11-20T11:00:02;26.40;;;18.40;;
1404;SDS011;697;51.114;6.542;2022-11-20T11:02:32;25.20;;;17.10;;
1404;SDS011;697;51.114;6.542;2022-11-20T11:05:07;28.53;;;17.93;;
1404;SDS011;697;51.114;6.542;2022-11-20T11:07:40;34.27;;;17.77;;
1404;SDS011;697;51.114;6.542;2022-11-20T11:10:13;25.17;;;17.70;;
1404;SDS011;697;51.114;6.542;2022-11-20T11:12:43;28.10;;;17.87;;
1404;SDS011;697;51.114;6.542;2022-11-20T11:15:12;23.07;;;16.37;;
1404;SDS011;697;51.114;6.542;2022-11-20T11:17:46;27.63;;;17.17;;
1404;SDS011;697;51.114;6.542;2022-11-20T11:20:18;25.30;;;17.50;;
1404;SDS011;697;51.114;6.542;2022-11-20T11:22:46;29.90;;;17.40;;
1404;SDS011;697;51.114;6.542;2022-11-20T11:28:01;28.73;;;18.20;;
1404;SDS011;697;51.114;6.542;2022-11-20T11:30:29;25.50;;;17.70;;
1404;SDS011;697;51.114;6.542;2022-11-20T11:33:09;24.00;;;17.40;;
1404;SDS011;697;51.114;6.542;2022-11-20T11:35:43;24.03;;;17.80;;
1404;SDS011;697;51.114;6.542;2022-11-20T11:38:12;27.67;;;16.90;;
1404;SDS011;697;51.114;6.542;2022-11-20T11:40:42;26.77;;;17.90;;
1404;SDS011;697;51.114;6.542;2022-11-20T11:43:17;24.17;;;17.13;;
1404;SDS011;697;51.114;6.542;2022-11-20T11:46:09;25.07;;;17.53;;
1404;SDS011;697;51.114;6.542;2022-11-20T11:49:01;25.90;;;18.00;;
1404;SDS011;697;51.114;6.542;2022-11-20T11:51:45;24.60;;;16.60;;
1404;SDS011;697;51.114;6.542;2022-11-20T11:54:20;25.27;;;17.50;;
1404;SDS011;697;51.114;6.542;2022-11-20T11:56:50;23.37;;;16.00;;
1404;SDS011;697;51.114;6.542;2022-11-20T11:59:21;22.50;;;16.47;;
1404;SDS011;697;51.114;6.542;2022-11-20T12:01:52;23.23;;;16.57;;
1404;SDS011;697;51.114;6.542;2022-11-20T12:04:25;26.53;;;17.70;;
1404;SDS011;697;51.114;6.542;2022-11-20T12:07:08;22.73;;;15.77;;
1404;SDS011;697;51.114;6.542;2022-11-20T12:09:43;25.53;;;17.30;;
1404;SDS011;697;51.114;6.542;2022-11-20T12:12:16;24.00;;;17.70;;
1404;SDS011;697;51.114;6.542;2022-11-20T12:14:46;22.53;;;16.10;;
1404;SDS011;697;51.114;6.542;2022-11-20T12:17:17;26.43;;;17.00;;
1404;SDS011;697;51.114;6.542;2022-11-20T12:19:44;26.03;;;18.10;;
1404;SDS011;697;51.114;6.542;2022-11-20T12:22:16;28.00;;;18.57;;
1404;SDS011;697;51.114;6.542;2022-11-20T12:24:51;25.43;;;18.30;;
1404;SDS011;697;51.114;6.542;2022-11-20T12:27:31;28.07;;;17.67;;
1404;SDS011;697;51.114;6.542;2022-11-20T12:30:10;26.90;;;18.30;;
1404;SDS011;697;51.114;6.542;2022-11-20T12:32:50;25.93;;;19.10;;
1404;SDS011;697;51.114;6.542;2022-11-20T12:35:37;31.07;;;20.70;;
1404;SDS011;697;51.114;6.542;2022-11-20T12:41:32;29.90;;;17.30;;
1404;SDS011;697;51.114;6.542;2022-11-20T12:47:41;27.23;;;19.97;;
1404;SDS011;697;51.114;6.542;2022-11-20T12:50:28;30.97;;;18.77;;
1404;SDS011;697;51.114;6.542;2022-11-20T12:53:04;25.67;;;17.50;;
1404;SDS011;697;51.114;6.542;2022-11-20T12:55:38;27.53;;;20.13;;
1404;SDS011;697;51.114;6.542;2022-11-20T12:58:15;24.03;;;16.17;;
1404;SDS011;697;51.114;6.542;2022-11-20T13:00:47;30.23;;;20.03;;
1404;SDS011;697;51.114;6.542;2022-11-20T13:03:31;27.20;;;19.33;;
1404;SDS011;697;51.114;6.542;2022-11-20T13:06:13;25.80;;;18.00;;
1404;SDS011;697;51.114;6.542;2022-11-20T13:08:43;27.87;;;18.90;;
1404;SDS011;697;51.114;6.542;2022-11-20T13:11:16;28.53;;;19.90;;
1404;SDS011;697;51.114;6.542;2022-11-20T13:13:56;33.73;;;20.80;;
1404;SDS011;697;51.114;6.542;2022-11-20T13:16:36;31.23;;;20.20;;
1404;SDS011;697;51.114;6.542;2022-11-20T13:19:09;30.20;;;19.20;;
1404;SDS011;697;51.114;6.542;2022-11-20T13:21:39;27.80;;;20.20;;
1404;SDS011;697;51.114;6.542;2022-11-20T13:24:07;28.07;;;19.17;;
1404;SDS011;697;51.114;6.542;2022-11-20T13:26:48;31.43;;;20.07;;
1404;SDS011;697;51.114;6.542;2022-11-20T13:29:26;25.70;;;19.73;;
1404;SDS011;697;51.114;6.542;2022-11-20T13:32:01;27.90;;;18.70;;
1404;SDS011;697;51.114;6.542;2022-11-20T13:34:29;30.03;;;21.13;;
1404;SDS011;697;51.114;6.542;2022-11-20T13:36:57;28.73;;;20.77;;
1404;SDS011;697;51.114;6.542;2022-11-20T13:39:29;26.20;;;19.83;;
1404;SDS011;697;51.114;6.542;2022-11-20T13:41:58;27.40;;;18.40;;
1404;SDS011;697;51.114;6.542;2022-11-20T13:44:29;30.27;;;20.60;;
1404;SDS011;697;51.114;6.542;2022-11-20T13:47:00;31.03;;;20.00;;
1404;SDS011;697;51.114;6.542;2022-11-20T13:49:29;33.17;;;22.13;;
1404;SDS011;697;51.114;6.542;2022-11-20T13:52:01;29.20;;;20.93;;
1404;SDS011;697;51.114;6.542;2022-11-20T13:55:01;32.93;;;23.60;;
1404;SDS011;697;51.114;6.542;2022-11-20T13:57:49;32.77;;;22.50;;
1404;SDS011;697;51.114;6.542;2022-11-20T14:00:44;31.03;;;22.80;;
1404;SDS011;697;51.114;6.542;2022-11-20T14:03:17;32.20;;;21.93;;
1404;SDS011;697;51.114;6.542;2022-11-20T14:05:48;33.17;;;23.70;;
1404;SDS011;697;51.114;6.542;2022-11-20T14:08:21;30.43;;;21.23;;
1404;SDS011;697;51.114;6.542;2022-11-20T14:11:02;31.77;;;23.30;;
1404;SDS011;697;51.114;6.542;2022-11-20T14:13:32;28.97;;;22.43;;
1404;SDS011;697;51.114;6.542;2022-11-20T14:16:00;31.03;;;21.70;;
1404;SDS011;697;51.114;6.542;2022-11-20T14:18:27;31.50;;;24.40;;
1404;SDS011;697;51.114;6.542;2022-11-20T14:20:54;34.00;;;23.90;;
1404;SDS011;697;51.114;6.542;2022-11-20T14:23:24;40.83;;;33.00;;
1404;SDS011;697;51.114;6.542;2022-11-20T14:25:52;37.30;;;26.73;;
1404;SDS011;697;51.114;6.542;2022-11-20T14:28:20;40.53;;;29.90;;
1404;SDS011;697;51.114;6.542;2022-11-20T14:30:51;31.37;;;23.40;;
1404;SDS011;697;51.114;6.542;2022-11-20T14:33:19;31.23;;;23.10;;
1404;SDS011;697;51.114;6.542;2022-11-20T14:35:50;31.17;;;21.73;;
1404;SDS011;697;51.114;6.542;2022-11-20T14:38:20;32.07;;;23.70;;
1404;SDS011;697;51.114;6.542;2022-11-20T14:40:51;27.83;;;22.33;;
1404;SDS011;697;51.114;6.542;2022-11-20T14:43:19;26.40;;;20.20;;
1404;SDS011;697;51.114;6.542;2022-11-20T14:45:49;28.03;;;20.27;;
1404;SDS011;697;51.114;6.542;2022-11-20T14:48:28;28.10;;;19.20;;
1404;SDS011;697;51.114;6.542;2022-11-20T14:50:57;30.60;;;23.93;;
1404;SDS011;697;51.114;6.542;2022-11-20T14:53:24;33.20;;;26.20;;
1404;SDS011;697;51.114;6.542;2022-11-20T14:55:55;29.17;;;19.93;;
1404;SDS011;697;51.114;6.542;2022-11-20T14:58:24;29.53;;;19.67;;
1404;SDS011;697;51.114;6.542;2022-11-20T15:00:53;26.17;;;20.17;;
1404;SDS011;697;51.114;6.542;2022-11-20T15:03:21;27.83;;;18.90;;
1404;SDS011;697;51.114;6.542;2022-11-20T15:05:50;25.73;;;18.43;;
1404;SDS011;697;51.114;6.542;2022-11-20T15:08:17;26.50;;;18.40;;
1404;SDS011;697;51.114;6.542;2022-11-20T15:10:47;27.10;;;20.00;;
1404;SDS011;697;51.114;6.542;2022-11-20T15:13:17;28.90;;;20.53;;
1404;SDS011;697;51.114;6.542;2022-11-20T15:15:50;28.63;;;21.73;;
1404;SDS011;697;51.114;6.542;2022-11-20T15:18:20;25.90;;;17.90;;
1404;SDS011;697;51.114;6.542;2022-11-20T15:20:50;26.53;;;18.70;;
1404;SDS011;697;51.114;6.542;2022-11-20T15:23:18;30.00;;;20.07;;
1404;SDS011;697;51.114;6.542;2022-11-20T15:25:45;26.37;;;18.43;;